Time;durP1;ratioP1;P1;durP2;ratioP2;P2;SDS_P1;SDS_P2;PMS_P1;PMS_P2;Temp;Humidity;BMP_temperature;BMP_pressure;BME280_temperature;BME280_humidity;BME280_pressure;Samples;Min_cycle;Max_cycle;Signal;HPM_P1;HPM_P2
2022/08/07 00:01:47;;;;;;;7.45;5.00;;;;;;;24.18;48.60;98948.02;1731090;83;21015;-81
2022/08/07 00:04:14;;;;;;;7.60;4.33;;;;;;;24.14;48.61;98951.06;1716556;83;21124;-81
2022/08/07 00:06:40;;;;;;;8.00;4.47;;;;;;;24.11;48.54;98952.63;1718569;83;21049;-80
2022/08/07 00:09:07;;;;;;;6.45;4.50;;;;;;;24.09;48.64;98955.91;1709680;83;21006;-80
2022/08/07 00:11:35;;;;;;;10.30;4.80;;;;;;;24.05;48.99;98963.28;1719775;83;21043;-80
2022/08/07 00:14:01;;;;;;;7.87;4.45;;;;;;;24.02;49.12;98963.05;1721651;83;20990;-80
2022/08/07 00:16:28;;;;;;;9.33;4.80;;;;;;;24.00;49.55;98971.63;1714922;83;21051;-80
2022/08/07 00:18:55;;;;;;;7.12;4.30;;;;;;;23.98;51.36;98968.76;1724605;83;20979;-81
2022/08/07 00:21:21;;;;;;;9.18;4.47;;;;;;;23.96;50.05;98966.72;1716269;83;21468;-80
2022/08/07 00:23:48;;;;;;;7.33;4.42;;;;;;;23.94;50.37;98968.16;1729808;83;20951;-82
2022/08/07 00:26:15;;;;;;;9.70;4.00;;;;;;;23.94;50.19;98968.66;1719156;82;21009;-81
2022/08/07 00:28:43;;;;;;;6.67;4.30;;;;;;;23.93;50.06;98963.80;1734812;83;21041;-81
2022/08/07 00:31:10;;;;;;;11.55;4.83;;;;;;;23.94;50.20;98962.02;1721612;82;21531;-81
2022/08/07 00:33:39;;;;;;;9.93;5.53;;;;;;;23.92;50.82;98955.99;1730281;83;20984;-80
2022/08/07 00:36:07;;;;;;;9.58;4.62;;;;;;;23.92;50.97;98942.22;1730343;82;20980;-81
2022/08/07 00:38:36;;;;;;;9.23;4.45;;;;;;;23.93;51.11;98952.35;1735871;83;21309;-81
2022/08/07 00:41:04;;;;;;;6.10;4.25;;;;;;;23.93;51.15;98951.02;1709153;83;21099;-80
2022/08/07 00:43:31;;;;;;;6.65;4.37;;;;;;;23.93;50.93;98952.35;1716451;83;20971;-80
2022/08/07 00:46:00;;;;;;;6.87;4.45;;;;;;;23.94;50.73;98952.73;1715329;82;20984;-80
2022/08/07 00:48:27;;;;;;;11.70;4.80;;;;;;;23.93;51.18;98961.16;1732957;83;20985;-81
2022/08/07 00:50:55;;;;;;;8.93;4.90;;;;;;;23.94;51.16;98958.88;1730719;82;20999;-81
2022/08/07 00:53:22;;;;;;;8.03;4.53;;;;;;;23.94;51.67;98958.03;1718873;83;21004;-80
2022/08/07 00:55:49;;;;;;;8.75;4.83;;;;;;;23.97;53.06;98956.44;1713864;83;20989;-81
2022/08/07 00:58:19;;;;;;;7.55;4.53;;;;;;;23.99;52.80;98945.20;1679579;84;21500;-80
2022/08/07 01:00:46;;;;;;;8.30;4.58;;;;;;;24.00;52.00;98953.05;1688667;84;20992;-81
2022/08/07 01:03:13;;;;;;;9.25;4.80;;;;;;;23.99;52.98;98954.03;1694841;84;22111;-80
2022/08/07 01:05:42;;;;;;;9.45;4.67;;;;;;;23.98;51.97;98958.97;1692824;84;21070;-81
2022/08/07 01:08:08;;;;;;;6.25;4.45;;;;;;;23.98;53.15;98956.81;1689914;84;21004;-81
2022/08/07 01:10:36;;;;;;;6.62;4.33;;;;;;;23.98;51.89;98948.35;1683320;84;21630;-80
2022/08/07 01:13:03;;;;;;;6.67;4.35;;;;;;;23.97;52.07;98957.30;1687851;84;21747;-80
2022/08/07 01:15:33;;;;;;;7.80;4.42;;;;;;;23.99;52.66;98948.72;1695510;84;21027;-80
2022/08/07 01:18:00;;;;;;;9.00;4.70;;;;;;;24.00;52.13;98946.41;1675627;84;20987;-81
2022/08/07 01:20:33;;;;;;;10.68;3.95;;;;;;;23.99;52.10;98946.53;1686784;85;21075;-81
2022/08/07 01:23:00;;;;;;;7.65;4.80;;;;;;;23.98;52.99;98936.90;1694969;84;21019;-80
2022/08/07 01:25:29;;;;;;;7.35;4.33;;;;;;;23.98;52.47;98943.53;1685060;84;21132;-80
2022/08/07 01:27:56;;;;;;;8.75;4.70;;;;;;;23.96;52.73;98938.34;1673871;85;21056;-80
2022/08/07 01:30:26;;;;;;;10.60;4.75;;;;;;;23.97;53.02;98941.83;1671463;85;21541;-80
2022/08/07 01:32:54;;;;;;;9.65;4.33;;;;;;;23.97;53.19;98932.54;1662997;85;21476;-80
2022/08/07 01:35:21;;;;;;;8.53;4.50;;;;;;;23.97;52.65;98941.83;1666998;85;21034;-81
2022/08/07 01:37:49;;;;;;;9.95;4.87;;;;;;;23.94;53.23;98940.28;1679862;85;20993;-81
2022/08/07 01:40:20;;;;;;;10.82;4.90;;;;;;;23.92;53.12;98946.70;1664301;85;21011;-82
2022/08/07 01:42:51;;;;;;;5.70;4.37;;;;;;;23.91;53.58;98942.34;1685024;85;21116;-81
2022/08/07 01:45:20;;;;;;;10.32;4.80;;;;;;;23.91;53.17;98939.20;1672177;84;21081;-81
2022/08/07 01:47:48;;;;;;;8.10;4.45;;;;;;;23.89;53.29;98945.12;1661411;85;20969;-81
2022/08/07 01:50:16;;;;;;;6.30;4.33;;;;;;;23.87;53.22;98939.09;1672689;85;21082;-80
2022/08/07 01:52:44;;;;;;;8.08;4.90;;;;;;;23.84;53.76;98944.67;1662477;85;21021;-83
2022/08/07 01:55:12;;;;;;;8.03;4.67;;;;;;;23.77;54.60;98941.66;1661155;85;21073;-82
2022/08/07 01:57:42;;;;;;;7.45;4.50;;;;;;;23.73;54.22;98944.67;1678542;85;21012;-81
2022/08/07 02:00:12;;;;;;;7.33;4.72;;;;;;;23.65;54.21;98940.48;1658179;85;21100;-80
2022/08/07 02:02:55;;;;;;;9.20;5.00;;;;;;;23.58;55.98;98940.15;1677234;85;21060;-81
2022/08/07 02:05:40;;;;;;;7.12;4.72;;;;;;;23.52;54.83;98937.51;1674100;85;21133;-80
2022/08/07 02:08:13;;;;;;;9.85;5.00;;;;;;;23.45;54.87;98940.78;1675488;85;20998;-81
2022/08/07 02:10:43;;;;;;;8.38;5.12;;;;;;;23.40;55.79;98933.20;1671093;85;21692;-82
2022/08/07 02:13:12;;;;;;;7.83;4.80;;;;;;;23.37;55.11;98936.92;1673846;85;21391;-81
2022/08/07 02:15:44;;;;;;;8.38;5.40;;;;;;;23.36;56.15;98942.37;1668026;85;21100;-80
2022/08/07 02:18:12;;;;;;;8.10;5.05;;;;;;;23.34;55.49;98937.67;1675600;85;21088;-81
2022/08/07 02:20:43;;;;;;;9.23;4.87;;;;;;;23.31;56.63;98940.06;1667245;85;21076;-81
2022/08/07 02:23:11;;;;;;;13.65;6.60;;;;;;;23.29;58.42;98949.95;1670578;85;21116;-81
2022/08/07 02:25:40;;;;;;;11.78;5.65;;;;;;;23.25;56.63;98945.03;1679865;84;21056;-80
2022/08/07 02:28:08;;;;;;;17.70;5.90;;;;;;;23.18;57.06;98956.13;1665996;84;21056;-81
2022/08/07 02:30:38;;;;;;;9.58;4.80;;;;;;;23.11;57.33;98953.59;1687546;84;21087;-80
2022/08/07 02:33:06;;;;;;;8.78;5.10;;;;;;;23.02;58.75;98963.63;1673693;84;21003;-80
2022/08/07 02:35:34;;;;;;;8.23;5.20;;;;;;;22.94;58.26;98956.23;1690214;84;21000;-80
2022/08/07 02:38:05;;;;;;;7.67;4.80;;;;;;;22.87;60.32;98960.80;1687216;84;21061;-80
2022/08/07 02:40:34;;;;;;;10.18;5.78;;;;;;;22.84;60.19;98952.62;1696052;84;21051;-81
2022/08/07 02:43:02;;;;;;;8.18;5.15;;;;;;;22.77;61.15;98956.21;1684645;85;21014;-80
2022/08/07 02:45:31;;;;;;;11.18;5.40;;;;;;;22.74;60.90;98952.49;1680201;85;21082;-80
2022/08/07 02:47:58;;;;;;;8.70;5.12;;;;;;;22.69;61.79;98962.59;1685094;84;21026;-80
2022/08/07 02:50:26;;;;;;;8.63;5.28;;;;;;;22.67;62.19;98959.70;1689384;84;21104;-80
2022/08/07 02:52:56;;;;;;;10.28;5.17;;;;;;;22.67;62.35;98964.52;1671276;84;21018;-81
2022/08/07 02:55:26;;;;;;;10.90;5.53;;;;;;;22.70;62.00;98960.31;1687387;84;21469;-81
2022/08/07 02:57:57;;;;;;;12.53;5.22;;;;;;;22.63;63.67;98965.72;1672230;84;21024;-81
2022/08/07 03:00:26;;;;;;;10.38;5.65;;;;;;;22.59;63.43;98966.92;1684078;84;21147;-81
2022/08/07 03:02:53;;;;;;;8.90;5.60;;;;;;;22.55;64.42;98961.49;1693433;84;21548;-80
2022/08/07 03:05:20;;;;;;;11.33;6.17;;;;;;;22.54;63.66;98965.95;1689501;85;21619;-80
2022/08/07 03:07:48;;;;;;;9.58;6.22;;;;;;;22.53;63.46;98966.91;1692584;84;21047;-81
2022/08/07 03:10:16;;;;;;;8.95;5.53;;;;;;;22.44;63.63;98973.76;1695925;84;21031;-80
2022/08/07 03:12:46;;;;;;;8.30;5.45;;;;;;;22.44;64.08;98975.08;1690868;84;20984;-81
2022/08/07 03:15:14;;;;;;;13.72;6.00;;;;;;;22.46;63.74;98967.48;1676167;84;21075;-80
2022/08/07 03:17:42;;;;;;;8.80;5.50;;;;;;;22.43;63.73;98971.22;1688656;84;21507;-80
2022/08/07 03:20:11;;;;;;;11.30;6.17;;;;;;;22.38;63.67;98969.39;1671611;84;21039;-81
2022/08/07 03:22:41;;;;;;;8.63;6.22;;;;;;;22.32;65.26;98976.02;1676261;84;21504;-81
2022/08/07 03:25:08;;;;;;;12.23;6.10;;;;;;;22.25;64.65;98972.13;1671817;84;21040;-82
2022/08/07 03:27:40;;;;;;;8.78;6.30;;;;;;;22.16;65.61;98979.40;1680910;84;21685;-80
2022/08/07 03:30:09;;;;;;;11.05;5.83;;;;;;;22.13;65.33;98983.62;1687790;84;21024;-81
2022/08/07 03:32:40;;;;;;;9.60;5.87;;;;;;;22.10;64.96;98975.89;1691615;84;21067;-80
2022/08/07 03:35:16;;;;;;;10.95;5.45;;;;;;;22.04;66.33;98984.67;1685742;84;21085;-81
2022/08/07 03:37:47;;;;;;;10.05;5.70;;;;;;;22.04;65.59;98988.64;1689952;84;20966;-80
2022/08/07 03:40:14;;;;;;;10.08;5.37;;;;;;;22.03;65.58;98990.91;1684569;84;21087;-81
2022/08/07 03:42:42;;;;;;;10.70;5.37;;;;;;;22.02;65.37;98995.85;1690250;84;21056;-80
2022/08/07 03:45:10;;;;;;;11.10;5.55;;;;;;;22.04;65.51;98989.96;1687679;84;20988;-80
2022/08/07 03:47:37;;;;;;;12.23;5.67;;;;;;;22.07;66.28;99000.80;1687715;84;21008;-80
2022/08/07 03:50:04;;;;;;;11.05;5.25;;;;;;;22.12;66.29;99001.77;1725859;82;21002;-80
2022/08/07 03:52:34;;;;;;;8.95;5.62;;;;;;;22.14;66.30;99009.95;1719397;83;21471;-81
2022/08/07 03:55:04;;;;;;;7.83;5.22;;;;;;;22.15;67.68;99010.33;1724458;83;21014;-81
2022/08/07 03:57:32;;;;;;;8.43;5.20;;;;;;;22.17;66.77;99003.61;1714214;83;20995;-81
2022/08/07 04:00:00;;;;;;;8.85;5.50;;;;;;;22.19;68.51;99012.28;1728452;83;20979;-81
2022/08/07 04:02:27;;;;;;;11.75;6.12;;;;;;;22.20;66.08;99012.17;1711704;83;21022;-81
2022/08/07 04:04:54;;;;;;;10.60;5.22;;;;;;;22.22;66.14;99014.68;1728401;82;21142;-80
2022/08/07 04:07:22;;;;;;;9.40;5.35;;;;;;;22.19;65.50;99013.12;1709564;83;21002;-80
2022/08/07 04:09:50;;;;;;;8.70;5.17;;;;;;;22.21;64.90;99017.81;1731109;83;21277;-80
2022/08/07 04:12:19;;;;;;;9.03;5.05;;;;;;;22.20;64.16;99025.41;1723973;82;21039;-80
2022/08/07 04:17:15;;;;;;;10.85;5.40;;;;;;;22.22;63.38;99024.81;1874802;75;22929;-80
2022/08/07 04:19:42;;;;;;;10.13;5.25;;;;;;;22.21;63.21;99036.35;1839615;77;21003;-81
2022/08/07 04:22:11;;;;;;;8.28;5.42;;;;;;;22.21;62.64;99032.37;1827487;77;20998;-80
2022/08/07 04:24:40;;;;;;;10.48;5.17;;;;;;;22.17;62.40;99032.24;1820498;77;21551;-81
2022/08/07 04:27:08;;;;;;;8.90;5.28;;;;;;;22.16;62.88;99030.57;1829081;77;21018;-80
2022/08/07 04:29:35;;;;;;;9.98;5.53;;;;;;;22.18;62.60;99029.11;1824539;78;20944;-81
2022/08/07 04:32:02;;;;;;;9.45;5.20;;;;;;;22.22;62.24;99026.59;1827507;77;20998;-80
2022/08/07 04:34:30;;;;;;;12.13;5.90;;;;;;;22.18;63.10;99031.30;1822629;78;21542;-81
2022/08/07 04:36:57;;;;;;;11.80;5.97;;;;;;;22.21;63.17;99039.48;1809053;78;20983;-80
2022/08/07 04:39:24;;;;;;;8.40;5.58;;;;;;;22.25;63.15;99038.33;1828517;77;21067;-80
2022/08/07 04:41:51;;;;;;;7.53;5.58;;;;;;;22.24;64.74;99035.30;1815704;77;20923;-80
2022/08/07 04:44:18;;;;;;;8.60;5.83;;;;;;;22.24;63.92;99041.47;1824156;77;21067;-82
2022/08/07 04:47:00;;;;;;;7.87;4.45;;;;;;;22.22;65.72;99041.16;1820589;78;21000;-81
2022/08/07 04:49:41;;;;;;;10.13;5.28;;;;;;;22.22;65.75;99038.52;1822523;77;21476;-82
2022/08/07 04:52:30;;;;;;;10.58;5.03;;;;;;;22.19;65.38;99040.08;1814810;78;20963;-80
2022/08/07 04:55:02;;;;;;;7.90;5.40;;;;;;;22.21;66.01;99037.67;1850196;77;21050;-80
2022/08/07 04:57:55;;;;;;;10.15;5.37;;;;;;;22.28;65.34;99040.73;1819316;77;21043;-80
2022/08/07 05:00:31;;;;;;;8.33;5.20;;;;;;;22.35;66.39;99039.33;1813543;77;21535;-80
2022/08/07 05:03:41;;;;;;;9.13;5.10;;;;;;;22.40;66.35;99044.27;1819173;77;21023;-81
2022/08/07 05:06:19;;;;;;;8.08;5.42;;;;;;;22.47;65.43;99045.52;1826188;77;20983;-81
2022/08/07 05:08:57;;;;;;;10.30;6.05;;;;;;;22.54;66.14;99043.23;1807370;77;21003;-81
2022/08/07 05:11:32;;;;;;;9.98;5.58;;;;;;;22.64;65.26;99053.50;1825636;77;20956;-80
2022/08/07 05:14:06;;;;;;;11.78;5.08;;;;;;;22.67;65.99;99051.95;1812336;78;20983;-80
2022/08/07 05:16:35;;;;;;;8.18;5.33;;;;;;;22.73;64.85;99054.14;1827704;77;21149;-80
2022/08/07 05:19:18;;;;;;;10.38;6.58;;;;;;;22.84;65.04;99048.87;1788496;79;21523;-81
2022/08/07 05:21:53;;;;;;;8.83;5.95;;;;;;;22.88;64.46;99053.47;1826734;77;21022;-81
2022/08/07 05:24:21;;;;;;;9.73;5.55;;;;;;;22.95;64.56;99056.48;1813400;77;21042;-81
2022/08/07 05:26:53;;;;;;;8.68;5.72;;;;;;;23.04;63.82;99055.81;1827763;77;21132;-82
2022/08/07 05:29:22;;;;;;;7.97;5.22;;;;;;;23.13;63.94;99054.24;1827786;77;21057;-82
2022/08/07 05:31:51;;;;;;;9.83;5.60;;;;;;;23.21;62.83;99048.69;1832190;77;20990;-81
2022/08/07 05:34:21;;;;;;;9.78;5.08;;;;;;;23.28;62.72;99055.70;1825980;77;21460;-81
2022/08/07 05:36:52;;;;;;;8.53;5.58;;;;;;;23.35;62.83;99061.36;1835617;77;21491;-82
2022/08/07 05:39:29;;;;;;;8.05;5.37;;;;;;;23.43;62.29;99060.27;1812352;78;21008;-82
2022/08/07 05:41:59;;;;;;;12.05;5.55;;;;;;;23.50;62.43;99069.45;1821630;77;20991;-81
2022/08/07 05:44:29;;;;;;;10.70;5.92;;;;;;;23.56;62.25;99063.66;1825698;77;20979;-82
2022/08/07 05:46:58;;;;;;;11.45;5.92;;;;;;;23.66;62.19;99064.26;1834784;77;20975;-81
2022/08/07 05:49:26;;;;;;;8.78;5.60;;;;;;;23.73;61.94;99053.49;1823396;77;21013;-81
2022/08/07 05:51:54;;;;;;;11.65;5.67;;;;;;;23.80;61.65;99058.22;1836581;78;21491;-80
2022/08/07 05:54:22;;;;;;;10.70;5.80;;;;;;;23.89;61.54;99053.97;1792801;78;20982;-80
2022/08/07 05:56:49;;;;;;;8.75;5.80;;;;;;;23.98;61.32;99063.85;1823374;77;21030;-81
2022/08/07 05:59:19;;;;;;;8.83;5.55;;;;;;;24.08;61.18;99065.77;1825030;77;20979;-81
2022/08/07 06:01:49;;;;;;;10.23;5.83;;;;;;;24.18;61.23;99063.55;1833890;77;20988;-80
2022/08/07 06:04:19;;;;;;;8.93;6.08;;;;;;;24.29;60.57;99072.45;1832346;77;21483;-80
2022/08/07 06:06:46;;;;;;;9.95;5.35;;;;;;;24.39;60.27;99069.38;1826979;77;20998;-81
2022/08/07 06:09:16;;;;;;;9.25;5.65;;;;;;;24.50;60.46;99072.50;1830258;78;21621;-80
2022/08/07 06:11:45;;;;;;;8.43;5.35;;;;;;;24.61;60.07;99075.98;1814860;77;21097;-80
2022/08/07 06:14:12;;;;;;;7.67;4.95;;;;;;;24.70;59.96;99067.70;1831911;78;20962;-81
2022/08/07 06:16:42;;;;;;;9.13;5.50;;;;;;;24.80;59.99;99077.91;1816335;77;21046;-81
2022/08/07 06:19:09;;;;;;;9.65;5.78;;;;;;;24.90;59.47;99074.48;1836286;78;21018;-80
2022/08/07 06:21:36;;;;;;;9.43;5.62;;;;;;;25.00;59.35;99077.55;1814187;78;20987;-80
2022/08/07 06:24:04;;;;;;;8.35;5.30;;;;;;;25.11;59.14;99070.00;1816354;77;21014;-80
2022/08/07 06:26:30;;;;;;;8.58;5.60;;;;;;;25.27;58.64;99078.00;1825102;77;20999;-81
2022/08/07 06:28:59;;;;;;;8.35;5.55;;;;;;;25.32;58.78;99073.14;1833368;77;21029;-81
2022/08/07 06:31:27;;;;;;;8.38;5.30;;;;;;;25.42;58.55;99080.67;1820621;78;21029;-81
2022/08/07 06:33:54;;;;;;;8.05;5.45;;;;;;;25.51;58.36;99081.20;1831096;77;20924;-81
2022/08/07 06:36:21;;;;;;;10.68;6.12;;;;;;;25.62;58.20;99077.59;1829402;77;22170;-81
2022/08/07 06:38:50;;;;;;;9.05;5.53;;;;;;;25.75;57.99;99080.03;1827206;77;21062;-80
2022/08/07 06:41:30;;;;;;;10.53;5.55;;;;;;;25.83;57.64;99074.87;1827915;77;21003;-81
2022/08/07 06:43:59;;;;;;;8.60;5.87;;;;;;;25.94;57.56;99078.79;1824846;77;20991;-80
2022/08/07 06:46:26;;;;;;;13.55;5.33;;;;;;;26.08;57.31;99075.36;1830003;78;21007;-81
2022/08/07 06:48:53;;;;;;;9.53;5.67;;;;;;;26.22;56.86;99074.95;1820246;77;21004;-81
2022/08/07 06:51:25;;;;;;;8.40;5.45;;;;;;;26.30;56.35;99071.59;1831519;77;21404;-80
2022/08/07 06:53:56;;;;;;;8.65;5.03;;;;;;;26.36;56.06;99073.70;1830875;77;20943;-80
2022/08/07 06:56:38;;;;;;;7.53;5.45;;;;;;;26.42;55.71;99071.80;1831250;77;21467;-80
2022/08/07 06:59:10;;;;;;;8.93;5.62;;;;;;;26.45;55.58;99072.03;1818620;78;21058;-80
2022/08/07 07:01:41;;;;;;;9.20;5.12;;;;;;;26.50;55.34;99076.43;1810489;77;21133;-81
2022/08/07 07:04:09;;;;;;;7.47;5.30;;;;;;;26.57;55.14;99074.90;1820812;78;20955;-81
2022/08/07 07:06:37;;;;;;;10.65;5.40;;;;;;;26.65;55.00;99076.89;1811379;77;21557;-80
2022/08/07 07:09:26;;;;;;;7.30;5.17;;;;;;;26.70;54.67;99074.62;1830670;77;21038;-81
2022/08/07 07:12:07;;;;;;;8.35;5.50;;;;;;;26.75;54.57;99075.89;1836133;77;21047;-80
2022/08/07 07:15:05;;;;;;;7.60;5.30;;;;;;;26.85;53.87;99080.38;1826155;77;21038;-80
2022/08/07 07:17:40;;;;;;;9.38;5.12;;;;;;;26.95;53.65;99071.86;1832599;77;21046;-81
2022/08/07 07:20:12;;;;;;;8.25;5.00;;;;;;;27.09;53.32;99070.06;1813155;77;20999;-81
2022/08/07 07:22:39;;;;;;;7.40;5.50;;;;;;;27.23;52.94;99067.92;1830929;78;21002;-80
2022/08/07 07:25:08;;;;;;;7.85;5.47;;;;;;;27.34;52.50;99065.12;1815573;77;20983;-80
2022/08/07 07:27:40;;;;;;;8.23;5.33;;;;;;;27.46;52.28;99073.28;1833104;77;21554;-81
2022/08/07 07:30:08;;;;;;;8.05;5.55;;;;;;;27.61;51.99;99066.11;1816950;77;20975;-81
2022/08/07 07:32:39;;;;;;;8.60;5.45;;;;;;;27.72;51.93;99070.77;1833837;78;21550;-81
2022/08/07 07:35:10;;;;;;;7.92;5.35;;;;;;;27.85;51.43;99069.56;1820978;77;21037;-81
2022/08/07 07:37:41;;;;;;;9.23;5.25;;;;;;;27.93;50.78;99073.69;1836126;77;20991;-81
2022/08/07 07:40:13;;;;;;;7.83;5.08;;;;;;;28.00;50.33;99073.45;1820184;78;20991;-81
2022/08/07 07:42:44;;;;;;;7.60;4.97;;;;;;;28.09;49.64;99078.37;1830125;77;21002;-81
2022/08/07 07:45:12;;;;;;;7.03;4.80;;;;;;;28.14;49.42;99069.42;1833132;77;20935;-81
2022/08/07 07:47:43;;;;;;;6.50;4.80;;;;;;;28.22;49.15;99068.16;1833526;77;20982;-81
2022/08/07 07:50:12;;;;;;;10.38;5.05;;;;;;;28.29;48.58;99068.38;1830018;78;20993;-81
2022/08/07 07:52:41;;;;;;;13.48;5.30;;;;;;;28.39;48.75;99065.63;1836069;77;21002;-82
2022/08/07 07:55:09;;;;;;;6.30;4.42;;;;;;;28.49;48.21;99062.38;1829643;77;21661;-80
2022/08/07 07:57:38;;;;;;;7.78;5.20;;;;;;;28.53;47.69;99063.30;1828161;77;21002;-81
2022/08/07 08:00:08;;;;;;;8.48;5.17;;;;;;;28.59;47.84;99069.88;1830560;77;20983;-81
2022/08/07 08:02:40;;;;;;;10.60;6.92;;;;;;;28.66;47.08;99066.07;1828209;77;20956;-81
2022/08/07 08:05:09;;;;;;;11.25;5.97;;;;;;;28.68;46.36;99067.59;1831794;78;21022;-81
2022/08/07 08:07:38;;;;;;;8.15;5.78;;;;;;;28.71;46.50;99065.95;1830216;77;21037;-81
2022/08/07 08:10:08;;;;;;;8.93;5.83;;;;;;;28.76;46.57;99066.81;1834598;77;20958;-81
2022/08/07 08:12:35;;;;;;;9.75;5.85;;;;;;;28.80;46.42;99065.50;1832386;77;21018;-81
2022/08/07 08:15:02;;;;;;;9.90;5.45;;;;;;;28.85;46.26;99059.20;1833493;77;20971;-80
2022/08/07 08:17:33;;;;;;;11.57;5.92;;;;;;;28.90;46.17;99064.07;1827490;77;21485;-80
2022/08/07 08:20:06;;;;;;;8.75;5.17;;;;;;;28.89;46.18;99067.25;1833153;77;21499;-80
2022/08/07 08:28:22;;;;;;;8.33;5.72;;;;;;;29.01;45.25;99062.95;1807258;77;20990;-80
2022/08/07 08:30:56;;;;;;;8.58;5.83;;;;;;;29.08;45.42;99062.68;1845134;77;20986;-81
2022/08/07 08:33:28;;;;;;;6.78;5.08;;;;;;;29.15;45.29;99065.94;1770479;80;21029;-81
2022/08/07 08:35:57;;;;;;;8.20;5.53;;;;;;;29.21;44.37;99067.62;1785687;79;21436;-81
2022/08/07 08:38:35;;;;;;;7.12;5.17;;;;;;;29.26;44.96;99065.33;1774325;80;21010;-81
2022/08/07 08:41:24;;;;;;;6.83;5.10;;;;;;;29.30;44.55;99070.19;1778950;80;21023;-80
2022/08/07 08:44:14;;;;;;;9.95;5.60;;;;;;;29.37;44.90;99062.38;1782967;80;21014;-81
2022/08/07 08:47:15;;;;;;;9.63;5.12;;;;;;;29.47;45.02;99062.27;1768664;80;21023;-80
2022/08/07 08:49:56;;;;;;;12.15;5.58;;;;;;;29.61;44.50;99060.81;1786252;80;20995;-81
2022/08/07 08:52:34;;;;;;;7.97;5.60;;;;;;;29.67;44.13;99058.83;1780674;80;21542;-81
2022/08/07 08:55:11;;;;;;;10.25;5.65;;;;;;;29.77;44.02;99060.90;1781401;80;21048;-80
2022/08/07 08:57:49;;;;;;;7.65;5.22;;;;;;;29.82;43.48;99057.72;1786258;79;21066;-81
2022/08/07 09:00:17;;;;;;;7.22;5.05;;;;;;;29.85;43.53;99060.92;1786223;80;21066;-82
2022/08/07 09:03:01;;;;;;;8.13;5.40;;;;;;;29.92;42.86;99061.95;1782411;79;20960;-81
2022/08/07 09:05:42;;;;;;;7.37;5.22;;;;;;;29.96;43.21;99057.08;1778968;80;21027;-81
2022/08/07 09:08:42;;;;;;;8.05;5.47;;;;;;;30.11;42.94;99059.98;1775070;80;21039;-80
2022/08/07 09:11:37;;;;;;;8.63;5.17;;;;;;;30.29;42.58;99064.69;1788626;80;21094;-82
2022/08/07 09:14:41;;;;;;;7.12;5.22;;;;;;;30.45;41.80;99061.72;1786838;80;21050;-80
2022/08/07 09:17:38;;;;;;;9.50;5.35;;;;;;;30.48;41.73;99062.71;1781817;80;21063;-81
2022/08/07 09:20:26;;;;;;;7.60;5.37;;;;;;;30.55;41.63;99052.17;1772815;80;21023;-79
2022/08/07 09:23:15;;;;;;;7.75;5.28;;;;;;;30.69;41.62;99057.69;1786668;80;21041;-80
2022/08/07 09:25:59;;;;;;;8.73;5.33;;;;;;;30.86;41.56;99053.16;1777645;80;21007;-80
2022/08/07 09:28:40;;;;;;;8.90;5.33;;;;;;;31.07;41.34;99050.45;1784894;79;21575;-79
2022/08/07 09:31:17;;;;;;;8.03;5.55;;;;;;;31.23;40.72;99048.23;1779367;80;21007;-80
2022/08/07 09:34:20;;;;;;;10.10;5.37;;;;;;;31.28;39.85;99047.22;1768907;80;21054;-80
2022/08/07 09:37:10;;;;;;;8.80;5.20;;;;;;;31.33;39.18;99047.52;1778292;80;21039;-80
2022/08/07 09:39:54;;;;;;;8.88;5.45;;;;;;;31.33;39.39;99046.18;1779693;80;21000;-79
2022/08/07 09:42:40;;;;;;;9.18;6.00;;;;;;;31.29;39.54;99043.51;1778555;80;21047;-79
2022/08/07 09:45:35;;;;;;;7.95;5.58;;;;;;;31.13;39.21;99041.20;1747665;80;21055;-81
2022/08/07 09:48:51;;;;;;;7.30;5.35;;;;;;;31.08;39.32;99038.20;1772626;80;21055;-81
2022/08/07 09:51:26;;;;;;;9.08;5.95;;;;;;;31.16;39.41;99025.27;1773993;80;21393;-80
2022/08/07 09:53:57;;;;;;;9.30;5.97;;;;;;;31.24;38.82;99033.81;1770793;80;20968;-81
2022/08/07 09:56:48;;;;;;;7.35;5.40;;;;;;;31.35;38.31;99031.23;1770554;79;21008;-80
2022/08/07 09:59:26;;;;;;;8.88;5.05;;;;;;;31.37;37.40;99030.56;1779432;80;21052;-80
2022/08/07 10:02:35;;;;;;;8.28;5.53;;;;;;;31.43;37.90;99030.69;1769822;80;21086;-81
2022/08/07 10:05:31;;;;;;;8.63;4.90;;;;;;;31.64;37.54;99030.14;1770251;80;21039;-81
2022/08/07 10:08:26;;;;;;;8.85;4.95;;;;;;;31.87;36.97;99019.44;1770427;80;21031;-81
2022/08/07 10:11:21;;;;;;;9.40;5.50;;;;;;;32.07;36.37;99018.98;1756030;81;21047;-81
2022/08/07 10:14:35;;;;;;;12.45;7.70;;;;;;;32.19;35.93;99013.54;1774683;80;21567;-81
2022/08/07 10:17:19;;;;;;;8.08;5.25;;;;;;;32.16;36.01;99012.54;1747422;79;21503;-80
2022/08/07 10:20:13;;;;;;;8.58;6.60;;;;;;;32.13;33.57;99018.78;1771858;80;21562;-80
2022/08/07 10:23:17;;;;;;;8.78;5.72;;;;;;;32.13;35.10;99015.57;1775734;80;20972;-81
2022/08/07 10:26:04;;;;;;;7.80;5.15;;;;;;;32.25;34.81;99013.30;1769926;80;20996;-81
2022/08/07 10:28:38;;;;;;;8.40;5.45;;;;;;;32.21;35.04;99011.99;1771240;80;21039;-80
2022/08/07 10:31:54;;;;;;;7.50;4.75;;;;;;;32.25;35.11;99003.41;1772546;80;21028;-81
2022/08/07 10:35:06;;;;;;;8.45;5.55;;;;;;;32.43;35.25;99006.26;1766431;80;21512;-81
2022/08/07 10:38:19;;;;;;;6.95;5.05;;;;;;;32.51;34.17;98996.80;1679925;83;21035;-81
2022/08/07 10:41:05;;;;;;;8.35;5.28;;;;;;;32.58;34.24;99000.45;1680533;83;21036;-80
2022/08/07 10:43:42;;;;;;;6.42;4.90;;;;;;;32.76;33.50;99004.66;1756847;80;21042;-81
2022/08/07 10:46:14;;;;;;;6.70;4.78;;;;;;;32.90;33.61;98991.19;1771867;79;20999;-80
2022/08/07 10:48:50;;;;;;;8.28;5.58;;;;;;;32.90;33.76;98986.33;1767845;80;21111;-79
2022/08/07 10:51:57;;;;;;;7.12;4.95;;;;;;;32.83;33.35;98989.45;1769607;80;21448;-81
2022/08/07 10:54:45;;;;;;;9.33;5.30;;;;;;;32.75;33.73;98976.05;1769835;79;21030;-79
2022/08/07 10:57:52;;;;;;;6.92;5.08;;;;;;;32.80;33.72;98977.70;1770379;80;21019;-79
2022/08/07 11:00:20;;;;;;;7.65;5.17;;;;;;;32.87;33.89;98970.56;1770055;80;21076;-80
2022/08/07 11:03:35;;;;;;;8.13;5.97;;;;;;;32.86;32.99;98970.22;1781879;80;21031;-81
2022/08/07 11:06:23;;;;;;;7.12;4.72;;;;;;;32.90;33.03;98975.04;1773849;80;21042;-80
2022/08/07 11:09:13;;;;;;;9.50;5.10;;;;;;;33.04;32.58;98976.58;1766725;80;21477;-81
2022/08/07 11:11:48;;;;;;;8.95;5.00;;;;;;;33.02;32.99;98965.98;1767028;80;21020;-80
2022/08/07 11:14:23;;;;;;;7.00;5.12;;;;;;;33.16;32.39;98966.20;1773968;80;20995;-81
2022/08/07 11:17:04;;;;;;;6.42;4.70;;;;;;;33.19;32.33;98967.19;1762318;80;21078;-81
2022/08/07 11:19:39;;;;;;;7.40;5.05;;;;;;;33.31;32.00;98962.98;1761840;79;21001;-81
2022/08/07 11:22:39;;;;;;;8.23;5.10;;;;;;;33.41;31.48;98955.44;1770940;80;21031;-81
2022/08/07 11:25:14;;;;;;;8.25;4.90;;;;;;;33.47;31.27;98956.02;1776058;80;21079;-81
2022/08/07 11:27:55;;;;;;;5.78;4.30;;;;;;;33.49;31.12;98948.59;1772546;80;21004;-81
2022/08/07 11:30:27;;;;;;;8.48;5.10;;;;;;;33.48;31.21;98942.03;1769516;80;21003;-81
2022/08/07 11:33:08;;;;;;;7.75;5.20;;;;;;;33.53;31.24;98934.23;1772362;80;21600;-81
2022/08/07 11:35:49;;;;;;;7.28;4.70;;;;;;;33.64;30.90;98928.86;1718881;83;21063;-80
2022/08/07 11:38:30;;;;;;;7.00;4.87;;;;;;;33.83;31.27;98920.67;1771504;80;21999;-81
2022/08/07 11:41:16;;;;;;;6.53;5.12;;;;;;;34.00;30.45;98925.27;1748021;80;21031;-81
2022/08/07 11:44:15;;;;;;;6.30;4.55;;;;;;;34.02;30.27;98924.56;1771015;80;21457;-81
2022/08/07 11:47:02;;;;;;;6.55;5.25;;;;;;;34.06;30.41;98920.44;1714006;80;21047;-80
2022/08/07 11:49:58;;;;;;;6.37;4.80;;;;;;;34.07;30.16;98919.43;1758549;80;21000;-81
2022/08/07 11:52:50;;;;;;;7.45;4.70;;;;;;;34.07;30.61;98909.98;1774920;80;21543;-80
2022/08/07 11:55:39;;;;;;;7.40;4.78;;;;;;;34.23;30.56;98909.73;1743002;80;21063;-81
2022/08/07 11:58:14;;;;;;;7.55;4.90;;;;;;;34.40;30.33;98904.88;1773490;79;20980;-80
2022/08/07 12:01:06;;;;;;;6.33;4.85;;;;;;;34.45;30.05;98900.23;1771010;79;21052;-81
2022/08/07 12:03:50;;;;;;;6.07;4.90;;;;;;;34.51;29.82;98892.70;1770769;80;20991;-81
2022/08/07 12:06:43;;;;;;;6.00;4.45;;;;;;;34.42;28.78;98894.73;1776624;80;21011;-80
2022/08/07 12:09:36;;;;;;;6.67;4.92;;;;;;;34.45;28.86;98884.87;1758191;80;21010;-80
2022/08/07 12:12:18;;;;;;;6.12;4.60;;;;;;;34.56;28.75;98884.85;1764630;80;20988;-81
2022/08/07 12:14:50;;;;;;;7.67;4.15;;;;;;;34.70;28.58;98876.84;1778108;80;21011;-81
2022/08/07 12:17:19;;;;;;;6.00;4.47;;;;;;;34.94;28.44;98879.05;1800881;79;21034;-80